Terminal Aerodrome Forecast
Issued by NWS Boise, ID

Home | Current Version | Previous Version | Text Only | Print | Product List | Glossary On
Versions: 1 2 3 4 5 6 7 8 9 10 11 12 13 14 15 16 17 18 19 20 21 22 23 24 25 26 27 28 29 30 31 32 33 34 35 36
000
FTUS45 KBOI 132323
TAFBOI
TAF
KBOI 132323Z 1400/1424 34007KT P6SM SCT250
     FM140200 VRB04KT P6SM BKN200
     FM140900 VRB05KT P6SM VCSH OVC050
      TEMPO 1409/1411 6SM -RA BR BKN040
     FM141100 VRB05KT 6SM -RA BR SCT020 OVC040
     FM141900 32010KT P6SM VCSH FEW025 OVC050=

USA.gov is the U.S. government's official web portal to all federal, state and local government web resources and services.